UAL399Y KMCO-KMIA
Flight info
| Callsign | UAL399Y |
|---|---|
| Flight time | 0h 44m |
| Altitude | 23000 |
| Route | DDANY3 DDANY CSTAL3 |
| Aircraft | A320/M-SDE3FGHIRWY/LB1 |
Departure
| Time | 2026-04-26 17:47 |
|---|---|
| Airport | Orlando International Airport (KMCO) |
Arrival
| Time | 2026-04-26 18:31 |
|---|---|
| Airport | Miami International Airport (KMIA) |
| Time | Latitude | Longitude | Altitude | Speed | Heading |
|---|---|---|---|---|---|
| 2026-04-26 17:10 | 28.43596 | -81.30050 | 120 ft | 0 kts | 257° |
| 2026-04-26 17:32 | 28.43598 | -81.30036 | 100 ft | 4 kts | 264° |
| 2026-04-26 17:33 | 28.43604 | -81.30007 | 100 ft | 4 kts | 253° |
| 2026-04-26 17:33 | 28.43612 | -81.29977 | 100 ft | 4 kts | 252° |
| 2026-04-26 17:33 | 28.43620 | -81.29949 | 100 ft | 4 kts | 253° |
| 2026-04-26 17:34 | 28.43626 | -81.29893 | 100 ft | 4 kts | 315° |
| 2026-04-26 17:34 | 28.43622 | -81.29888 | 98 ft | 0 kts | 359° |
| 2026-04-26 17:39 | 28.43637 | -81.29888 | 101 ft | 1 kts | 359° |
| 2026-04-26 17:40 | 28.43651 | -81.29888 | 101 ft | 3 kts | 359° |
| 2026-04-26 17:40 | 28.43659 | -81.29889 | 102 ft | 5 kts | 358° |
| 2026-04-26 17:40 | 28.43787 | -81.29943 | 101 ft | 9 kts | 316° |
| 2026-04-26 17:40 | 28.43857 | -81.29928 | 103 ft | 14 kts | 75° |
| 2026-04-26 17:41 | 28.43867 | -81.29914 | 104 ft | 4 kts | 300° |
| 2026-04-26 17:41 | 28.43875 | -81.29933 | 103 ft | 0 kts | 293° |
| 2026-04-26 17:41 | 28.43868 | -81.29941 | 104 ft | 6 kts | 223° |
| 2026-04-26 17:42 | 28.43772 | -81.29929 | 102 ft | 19 kts | 144° |
| 2026-04-26 17:42 | 28.43638 | -81.29889 | 101 ft | 22 kts | 179° |
| 2026-04-26 17:42 | 28.43549 | -81.29823 | 104 ft | 16 kts | 90° |
| 2026-04-26 17:42 | 28.43550 | -81.29700 | 103 ft | 10 kts | 89° |
| 2026-04-26 17:43 | 28.43550 | -81.29690 | 103 ft | 0 kts | 89° |
| 2026-04-26 17:45 | 28.43550 | -81.29688 | 103 ft | 0 kts | 89° |
| 2026-04-26 17:45 | 28.43550 | -81.29677 | 103 ft | 7 kts | 89° |
| 2026-04-26 17:45 | 28.43514 | -81.29593 | 105 ft | 16 kts | 155° |
| 2026-04-26 17:45 | 28.43455 | -81.29587 | 106 ft | 0 kts | 180° |
| 2026-04-26 17:46 | 28.43444 | -81.29587 | 106 ft | 14 kts | 180° |
| 2026-04-26 17:46 | 28.43089 | -81.29585 | 106 ft | 86 kts | 179° |
| 2026-04-26 17:46 | 28.42311 | -81.29576 | 101 ft | 139 kts | 180° |
| 2026-04-26 17:46 | 28.41249 | -81.29565 | 471 ft | 150 kts | 182° |
| 2026-04-26 17:47 | 28.40194 | -81.29501 | 1009 ft | 157 kts | 182° |
| 2026-04-26 17:47 | 28.39827 | -81.29482 | 1234 ft | 157 kts | 183° |
| 2026-04-26 17:47 | 28.37935 | -81.29144 | 1979 ft | 183 kts | 158° |
| 2026-04-26 17:47 | 28.36762 | -81.28301 | 2183 ft | 213 kts | 147° |
| 2026-04-26 17:48 | 28.35463 | -81.27324 | 2565 ft | 236 kts | 149° |
| 2026-04-26 17:48 | 28.34117 | -81.26106 | 3013 ft | 261 kts | 137° |
| 2026-04-26 17:48 | 28.32820 | -81.24572 | 3734 ft | 273 kts | 134° |
| 2026-04-26 17:48 | 28.31539 | -81.22952 | 4690 ft | 278 kts | 133° |
| 2026-04-26 17:49 | 28.30268 | -81.21325 | 5548 ft | 283 kts | 133° |
| 2026-04-26 17:49 | 28.28944 | -81.19645 | 6451 ft | 287 kts | 134° |
| 2026-04-26 17:49 | 28.27596 | -81.17953 | 7264 ft | 292 kts | 133° |
| 2026-04-26 17:49 | 28.26529 | -81.15978 | 8080 ft | 299 kts | 110° |
| 2026-04-26 17:50 | 28.26227 | -81.13637 | 8851 ft | 305 kts | 86° |
| 2026-04-26 17:50 | 28.26375 | -81.11229 | 9730 ft | 307 kts | 85° |
| 2026-04-26 17:50 | 28.26534 | -81.08793 | 10351 ft | 318 kts | 86° |
| 2026-04-26 17:50 | 28.26354 | -81.06201 | 10578 ft | 342 kts | 98° |
| 2026-04-26 17:51 | 28.26005 | -81.03497 | 11089 ft | 352 kts | 98° |
| 2026-04-26 17:51 | 28.25637 | -81.00735 | 11776 ft | 357 kts | 98° |
| 2026-04-26 17:51 | 28.25259 | -80.97932 | 12463 ft | 361 kts | 98° |
| 2026-04-26 17:51 | 28.24880 | -80.95107 | 13145 ft | 366 kts | 97° |
| 2026-04-26 17:52 | 28.24498 | -80.92272 | 13749 ft | 371 kts | 97° |
| 2026-04-26 17:52 | 28.24108 | -80.89366 | 13942 ft | 373 kts | 98° |
| 2026-04-26 17:52 | 28.23722 | -80.86457 | 13994 ft | 372 kts | 98° |
| 2026-04-26 17:52 | 28.23338 | -80.83553 | 14004 ft | 372 kts | 98° |
| 2026-04-26 17:53 | 28.22953 | -80.80658 | 13996 ft | 372 kts | 98° |
| 2026-04-26 17:53 | 28.22564 | -80.77759 | 13994 ft | 372 kts | 98° |
| 2026-04-26 17:53 | 28.22166 | -80.74857 | 13997 ft | 372 kts | 100° |
| 2026-04-26 17:54 | 28.20113 | -80.69526 | 13992 ft | 372 kts | 128° |
| 2026-04-26 17:54 | 28.18356 | -80.67402 | 13991 ft | 370 kts | 142° |
| 2026-04-26 17:54 | 28.16259 | -80.65799 | 13995 ft | 367 kts | 155° |
| 2026-04-26 17:54 | 28.13900 | -80.64739 | 13999 ft | 365 kts | 165° |
| 2026-04-26 17:55 | 28.11465 | -80.63898 | 14007 ft | 365 kts | 165° |
| 2026-04-26 17:55 | 28.09046 | -80.63063 | 14013 ft | 365 kts | 165° |
| 2026-04-26 17:55 | 28.06617 | -80.62225 | 13991 ft | 365 kts | 165° |
| 2026-04-26 17:55 | 28.04182 | -80.61383 | 13988 ft | 365 kts | 166° |
| 2026-04-26 17:56 | 28.01752 | -80.60543 | 13999 ft | 366 kts | 166° |
| 2026-04-26 17:56 | 27.96876 | -80.58854 | 14003 ft | 366 kts | 166° |
| 2026-04-26 17:57 | 27.91996 | -80.57162 | 14005 ft | 367 kts | 166° |
| 2026-04-26 17:57 | 27.89559 | -80.56319 | 14005 ft | 367 kts | 166° |
| 2026-04-26 17:57 | 27.87150 | -80.55488 | 14005 ft | 367 kts | 166° |
| 2026-04-26 17:57 | 27.84708 | -80.54645 | 14007 ft | 367 kts | 166° |
| 2026-04-26 17:58 | 27.77423 | -80.52130 | 14184 ft | 367 kts | 166° |
| 2026-04-26 17:59 | 27.72502 | -80.50440 | 15460 ft | 373 kts | 165° |
| 2026-04-26 17:59 | 27.69999 | -80.49581 | 16057 ft | 377 kts | 165° |
| 2026-04-26 17:59 | 27.67482 | -80.48716 | 16646 ft | 381 kts | 165° |
| 2026-04-26 17:59 | 27.64927 | -80.47837 | 17234 ft | 384 kts | 165° |
| 2026-04-26 18:00 | 27.62360 | -80.46953 | 17842 ft | 388 kts | 165° |
| 2026-04-26 18:00 | 27.59797 | -80.46073 | 18400 ft | 392 kts | 165° |
| 2026-04-26 18:00 | 27.57176 | -80.45172 | 18927 ft | 396 kts | 165° |
| 2026-04-26 18:00 | 27.54532 | -80.44264 | 19488 ft | 399 kts | 165° |
| 2026-04-26 18:01 | 27.51868 | -80.43350 | 20079 ft | 402 kts | 165° |
| 2026-04-26 18:01 | 27.49176 | -80.42427 | 20643 ft | 405 kts | 165° |
| 2026-04-26 18:01 | 27.46471 | -80.41499 | 21195 ft | 408 kts | 165° |
| 2026-04-26 18:01 | 27.43746 | -80.40565 | 21736 ft | 411 kts | 165° |
| 2026-04-26 18:02 | 27.41007 | -80.39625 | 22272 ft | 414 kts | 165° |
| 2026-04-26 18:02 | 27.40071 | -80.39303 | 22456 ft | 416 kts | 165° |
| 2026-04-26 18:02 | 27.35451 | -80.37712 | 22934 ft | 417 kts | 165° |
| 2026-04-26 18:02 | 27.32732 | -80.36779 | 22962 ft | 404 kts | 165° |
| 2026-04-26 18:03 | 27.30044 | -80.35859 | 22962 ft | 401 kts | 165° |
| 2026-04-26 18:03 | 27.27419 | -80.34966 | 22963 ft | 400 kts | 165° |
| 2026-04-26 18:03 | 27.24721 | -80.34050 | 22964 ft | 400 kts | 165° |
| 2026-04-26 18:03 | 27.22094 | -80.33157 | 22961 ft | 400 kts | 165° |
| 2026-04-26 18:04 | 27.19427 | -80.32250 | 22961 ft | 400 kts | 165° |
| 2026-04-26 18:04 | 27.16769 | -80.31345 | 22959 ft | 400 kts | 165° |
| 2026-04-26 18:04 | 27.14127 | -80.30446 | 22960 ft | 392 kts | 165° |
| 2026-04-26 18:05 | 27.08582 | -80.28567 | 22963 ft | 437 kts | 165° |
| 2026-04-26 18:05 | 27.05720 | -80.27593 | 22957 ft | 423 kts | 165° |
| 2026-04-26 18:05 | 27.02950 | -80.26646 | 22959 ft | 408 kts | 165° |
| 2026-04-26 18:05 | 27.00261 | -80.25726 | 22964 ft | 403 kts | 165° |
| 2026-04-26 18:06 | 26.98494 | -80.25124 | 22966 ft | 402 kts | 165° |
| 2026-04-26 18:06 | 26.94949 | -80.23922 | 22967 ft | 401 kts | 165° |
| 2026-04-26 18:06 | 26.92250 | -80.23009 | 22971 ft | 412 kts | 165° |
| 2026-04-26 18:06 | 26.89488 | -80.22078 | 22970 ft | 417 kts | 165° |
| 2026-04-26 18:07 | 26.86722 | -80.21142 | 22962 ft | 409 kts | 165° |
| 2026-04-26 18:07 | 26.84041 | -80.20231 | 22840 ft | 397 kts | 165° |
| 2026-04-26 18:07 | 26.82298 | -80.19639 | 22746 ft | 389 kts | 165° |
| 2026-04-26 18:07 | 26.80579 | -80.19055 | 22607 ft | 383 kts | 165° |
| 2026-04-26 18:08 | 26.76372 | -80.17629 | 22014 ft | 376 kts | 165° |
| 2026-04-26 18:08 | 26.74723 | -80.17071 | 21755 ft | 374 kts | 165° |
| 2026-04-26 18:08 | 26.72247 | -80.16235 | 21367 ft | 371 kts | 165° |
| 2026-04-26 18:08 | 26.69780 | -80.15402 | 20967 ft | 369 kts | 165° |
| 2026-04-26 18:09 | 26.67326 | -80.14574 | 20583 ft | 367 kts | 165° |
| 2026-04-26 18:09 | 26.64893 | -80.13753 | 20205 ft | 365 kts | 165° |
| 2026-04-26 18:09 | 26.62472 | -80.12934 | 19835 ft | 363 kts | 165° |
| 2026-04-26 18:09 | 26.60068 | -80.12120 | 19471 ft | 360 kts | 165° |
| 2026-04-26 18:10 | 26.57667 | -80.11310 | 19108 ft | 358 kts | 165° |
| 2026-04-26 18:10 | 26.55322 | -80.10524 | 18760 ft | 356 kts | 165° |
| 2026-04-26 18:10 | 26.52958 | -80.09735 | 18408 ft | 354 kts | 165° |
| 2026-04-26 18:10 | 26.50603 | -80.08948 | 18018 ft | 352 kts | 165° |
| 2026-04-26 18:11 | 26.48260 | -80.08161 | 17600 ft | 351 kts | 165° |
| 2026-04-26 18:11 | 26.45935 | -80.07395 | 17157 ft | 346 kts | 167° |
| 2026-04-26 18:11 | 26.43646 | -80.06589 | 16441 ft | 344 kts | 163° |
| 2026-04-26 18:11 | 26.41403 | -80.05712 | 16071 ft | 341 kts | 162° |
| 2026-04-26 18:12 | 26.39162 | -80.04829 | 15920 ft | 342 kts | 162° |
| 2026-04-26 18:12 | 26.36929 | -80.03945 | 15364 ft | 338 kts | 162° |
| 2026-04-26 18:12 | 26.34750 | -80.03079 | 14722 ft | 336 kts | 162° |
| 2026-04-26 18:12 | 26.32563 | -80.02207 | 14101 ft | 333 kts | 162° |
| 2026-04-26 18:13 | 26.30387 | -80.01338 | 13455 ft | 330 kts | 162° |
| 2026-04-26 18:13 | 26.28238 | -80.00479 | 12799 ft | 326 kts | 162° |
| 2026-04-26 18:13 | 26.26114 | -79.99628 | 12176 ft | 322 kts | 162° |
| 2026-04-26 18:13 | 26.24724 | -79.99070 | 11773 ft | 320 kts | 162° |
| 2026-04-26 18:14 | 26.21876 | -79.98588 | 11125 ft | 302 kts | 189° |
| 2026-04-26 18:14 | 26.19772 | -79.98903 | 10997 ft | 311 kts | 192° |
| 2026-04-26 18:14 | 26.17580 | -79.99296 | 11005 ft | 325 kts | 192° |
| 2026-04-26 18:14 | 26.15354 | -79.99707 | 11016 ft | 330 kts | 192° |
| 2026-04-26 18:15 | 26.13101 | -80.00123 | 10664 ft | 327 kts | 192° |
| 2026-04-26 18:15 | 26.10863 | -80.00535 | 10284 ft | 325 kts | 192° |
| 2026-04-26 18:15 | 26.08633 | -80.00947 | 9903 ft | 323 kts | 192° |
| 2026-04-26 18:15 | 26.06423 | -80.01356 | 9505 ft | 321 kts | 192° |
| 2026-04-26 18:16 | 26.04229 | -80.01766 | 9128 ft | 318 kts | 192° |
| 2026-04-26 18:16 | 26.00020 | -80.02562 | 8856 ft | 296 kts | 192° |
| 2026-04-26 18:16 | 25.98048 | -80.02931 | 8562 ft | 282 kts | 192° |
| 2026-04-26 18:17 | 25.96136 | -80.03292 | 8116 ft | 275 kts | 192° |
| 2026-04-26 18:17 | 25.94323 | -80.03717 | 7989 ft | 269 kts | 204° |
| 2026-04-26 18:17 | 25.92790 | -80.04856 | 8003 ft | 267 kts | 228° |
| 2026-04-26 18:17 | 25.91550 | -80.06397 | 7999 ft | 268 kts | 232° |
| 2026-04-26 18:18 | 25.90348 | -80.07993 | 8003 ft | 271 kts | 232° |
| 2026-04-26 18:18 | 25.89146 | -80.09597 | 8008 ft | 269 kts | 232° |
| 2026-04-26 18:18 | 25.87949 | -80.11197 | 8008 ft | 269 kts | 232° |
| 2026-04-26 18:18 | 25.86754 | -80.12796 | 8008 ft | 269 kts | 232° |
| 2026-04-26 18:19 | 25.85561 | -80.14392 | 8007 ft | 268 kts | 232° |
| 2026-04-26 18:19 | 25.84481 | -80.16015 | 8003 ft | 257 kts | 247° |
| 2026-04-26 18:19 | 25.84054 | -80.17905 | 8009 ft | 253 kts | 265° |
| 2026-04-26 18:19 | 25.83893 | -80.19846 | 8008 ft | 252 kts | 266° |
| 2026-04-26 18:20 | 25.83751 | -80.21789 | 8009 ft | 253 kts | 268° |
| 2026-04-26 18:20 | 25.83625 | -80.23733 | 8008 ft | 252 kts | 267° |
| 2026-04-26 18:20 | 25.83621 | -80.25673 | 8002 ft | 250 kts | 283° |
| 2026-04-26 18:20 | 25.84008 | -80.26861 | 7888 ft | 247 kts | 300° |
| 2026-04-26 18:21 | 25.85315 | -80.28925 | 7482 ft | 248 kts | 307° |
| 2026-04-26 18:21 | 25.86368 | -80.30420 | 7313 ft | 242 kts | 308° |
| 2026-04-26 18:21 | 25.87395 | -80.31862 | 7197 ft | 234 kts | 308° |
| 2026-04-26 18:21 | 25.88390 | -80.33249 | 7074 ft | 226 kts | 307° |
| 2026-04-26 18:22 | 25.89366 | -80.34607 | 6858 ft | 227 kts | 308° |
| 2026-04-26 18:22 | 25.90357 | -80.35988 | 6698 ft | 228 kts | 307° |
| 2026-04-26 18:22 | 25.91330 | -80.37332 | 6533 ft | 224 kts | 307° |
| 2026-04-26 18:22 | 25.92308 | -80.38679 | 6276 ft | 224 kts | 307° |
| 2026-04-26 18:23 | 25.93295 | -80.40023 | 5997 ft | 223 kts | 307° |
| 2026-04-26 18:23 | 25.94279 | -80.41336 | 5567 ft | 222 kts | 307° |
| 2026-04-26 18:23 | 25.95269 | -80.42662 | 5068 ft | 224 kts | 308° |
| 2026-04-26 18:23 | 25.96036 | -80.44130 | 4578 ft | 218 kts | 280° |
| 2026-04-26 18:24 | 25.96108 | -80.45790 | 4086 ft | 216 kts | 265° |
| 2026-04-26 18:24 | 25.95981 | -80.47460 | 3599 ft | 217 kts | 263° |
| 2026-04-26 18:24 | 25.95820 | -80.49177 | 3195 ft | 243 kts | 263° |
| 2026-04-26 18:24 | 25.95330 | -80.51105 | 2987 ft | 275 kts | 239° |
| 2026-04-26 18:25 | 25.94072 | -80.52584 | 2979 ft | 251 kts | 211° |
| 2026-04-26 18:25 | 25.92492 | -80.53097 | 2995 ft | 230 kts | 179° |
| 2026-04-26 18:25 | 25.90949 | -80.52757 | 3014 ft | 225 kts | 162° |
| 2026-04-26 18:25 | 25.89737 | -80.51759 | 3004 ft | 226 kts | 123° |
| 2026-04-26 18:26 | 25.89377 | -80.50082 | 3011 ft | 228 kts | 90° |
| 2026-04-26 18:26 | 25.89298 | -80.48328 | 2992 ft | 228 kts | 110° |
| 2026-04-26 18:26 | 25.88490 | -80.46848 | 3014 ft | 226 kts | 129° |
| 2026-04-26 18:26 | 25.87644 | -80.45372 | 2928 ft | 225 kts | 123° |
| 2026-04-26 18:27 | 25.86901 | -80.43905 | 2688 ft | 212 kts | 122° |
| 2026-04-26 18:27 | 25.86203 | -80.42524 | 2459 ft | 199 kts | 123° |
| 2026-04-26 18:27 | 25.85537 | -80.41214 | 2185 ft | 191 kts | 123° |
| 2026-04-26 18:27 | 25.84887 | -80.39942 | 1940 ft | 187 kts | 123° |
| 2026-04-26 18:28 | 25.84268 | -80.38726 | 1693 ft | 174 kts | 122° |
| 2026-04-26 18:28 | 25.83695 | -80.37603 | 1480 ft | 161 kts | 123° |
| 2026-04-26 18:28 | 25.83168 | -80.36565 | 1286 ft | 152 kts | 124° |
| 2026-04-26 18:28 | 25.82696 | -80.35637 | 1136 ft | 147 kts | 124° |
| 2026-04-26 18:29 | 25.82200 | -80.34661 | 903 ft | 144 kts | 125° |
| 2026-04-26 18:29 | 25.81712 | -80.33707 | 715 ft | 143 kts | 123° |
| 2026-04-26 18:29 | 25.81225 | -80.32747 | 565 ft | 143 kts | 123° |
| 2026-04-26 18:29 | 25.80738 | -80.31786 | 413 ft | 141 kts | 124° |
| 2026-04-26 18:30 | 25.80260 | -80.30853 | 182 ft | 135 kts | 125° |
| 2026-04-26 18:30 | 25.79799 | -80.29964 | 29 ft | 127 kts | 122° |
| 2026-04-26 18:30 | 25.79406 | -80.29207 | 19 ft | 98 kts | 119° |
| 2026-04-26 18:30 | 25.79127 | -80.28664 | 19 ft | 66 kts | 120° |
| 2026-04-26 18:31 | 25.78971 | -80.28362 | 23 ft | 28 kts | 119° |
| 2026-04-26 18:31 | 25.78969 | -80.28259 | 24 ft | 14 kts | 75° |
| 2026-04-26 18:31 | 25.78974 | -80.28208 | 24 ft | 7 kts | 84° |
| 2026-04-26 18:31 | 25.78975 | -80.28180 | 24 ft | 0 kts | 87° |
| 2026-04-26 18:34 | 25.78975 | -80.28178 | 24 ft | 1 kts | 87° |
| 2026-04-26 18:34 | 25.78981 | -80.28123 | 25 ft | 14 kts | 82° |
| 2026-04-26 18:34 | 25.78975 | -80.28003 | 27 ft | 16 kts | 113° |
| 2026-04-26 18:35 | 25.79021 | -80.27954 | 27 ft | 11 kts | 28° |
| 2026-04-26 18:35 | 25.79050 | -80.27936 | 25 ft | 1 kts | 29° |
| 2026-04-26 18:35 | 25.79051 | -80.27935 | 25 ft | 0 kts | 29° |